sensor_id;sensor_type;location;lat;lon;timestamp;pressure;altitude;pressure_sealevel;temperature;humidity
6435;BME280;3250;42.694;23.278;2023-05-29T00:00:55;94620.00;;;14.08;94.55
6435;BME280;3250;42.694;23.278;2023-05-29T00:03:20;94609.88;;;14.05;94.43
6435;BME280;3250;42.694;23.278;2023-05-29T00:05:45;94624.56;;;14.12;94.17
6435;BME280;3250;42.694;23.278;2023-05-29T00:08:11;94627.47;;;14.11;94.37
6435;BME280;3250;42.694;23.278;2023-05-29T00:10:36;94623.47;;;14.08;93.97
6435;BME280;3250;42.694;23.278;2023-05-29T00:13:02;94628.19;;;14.06;94.40
6435;BME280;3250;42.694;23.278;2023-05-29T00:15:28;94620.47;;;14.05;94.22
6435;BME280;3250;42.694;23.278;2023-05-29T00:17:56;94627.63;;;14.04;94.20
6435;BME280;3250;42.694;23.278;2023-05-29T00:20:22;94632.59;;;14.01;94.25
6435;BME280;3250;42.694;23.278;2023-05-29T00:22:47;94612.97;;;13.85;94.34
6435;BME280;3250;42.694;23.278;2023-05-29T00:25:14;94605.03;;;13.85;94.40
6435;BME280;3250;42.694;23.278;2023-05-29T00:27:41;94628.81;;;13.96;94.33
6435;BME280;3250;42.694;23.278;2023-05-29T00:30:07;94628.53;;;13.81;94.80
6435;BME280;3250;42.694;23.278;2023-05-29T00:32:33;94622.34;;;13.36;96.81
6435;BME280;3250;42.694;23.278;2023-05-29T00:34:58;94617.03;;;13.47;97.14
6435;BME280;3250;42.694;23.278;2023-05-29T00:37:23;94624.25;;;13.52;97.40
6435;BME280;3250;42.694;23.278;2023-05-29T00:39:49;94615.13;;;13.59;97.08
6435;BME280;3250;42.694;23.278;2023-05-29T00:42:15;94621.31;;;13.37;97.43
6435;BME280;3250;42.694;23.278;2023-05-29T00:44:40;94606.69;;;13.34;97.58
6435;BME280;3250;42.694;23.278;2023-05-29T00:47:06;94618.19;;;13.40;97.73
6435;BME280;3250;42.694;23.278;2023-05-29T00:49:33;94627.72;;;13.41;97.74
6435;BME280;3250;42.694;23.278;2023-05-29T00:51:59;94607.19;;;13.31;98.18
6435;BME280;3250;42.694;23.278;2023-05-29T00:54:29;94620.59;;;13.41;98.39
6435;BME280;3250;42.694;23.278;2023-05-29T00:56:57;94608.44;;;13.29;98.68
6435;BME280;3250;42.694;23.278;2023-05-29T00:59:22;94596.28;;;13.16;99.13
6435;BME280;3250;42.694;23.278;2023-05-29T01:01:51;94610.50;;;13.27;99.26
6435;BME280;3250;42.694;23.278;2023-05-29T01:04:18;94611.06;;;13.40;98.36
6435;BME280;3250;42.694;23.278;2023-05-29T01:06:44;94590.84;;;13.34;97.57
6435;BME280;3250;42.694;23.278;2023-05-29T01:09:10;94588.91;;;13.30;98.11
6435;BME280;3250;42.694;23.278;2023-05-29T01:11:47;94609.47;;;13.28;99.07
6435;BME280;3250;42.694;23.278;2023-05-29T01:14:32;94613.47;;;13.42;98.09
6435;BME280;3250;42.694;23.278;2023-05-29T01:17:07;94615.66;;;13.45;97.02
6435;BME280;3250;42.694;23.278;2023-05-29T01:22:42;94616.88;;;13.54;96.69
6435;BME280;3250;42.694;23.278;2023-05-29T01:27:40;94625.16;;;13.57;95.90
6435;BME280;3250;42.694;23.278;2023-05-29T01:30:07;94621.13;;;13.55;95.78
6435;BME280;3250;42.694;23.278;2023-05-29T01:32:34;94632.28;;;13.57;95.35
6435;BME280;3250;42.694;23.278;2023-05-29T01:35:00;94626.19;;;13.56;95.51
6435;BME280;3250;42.694;23.278;2023-05-29T01:37:25;94627.47;;;13.54;95.43
6435;BME280;3250;42.694;23.278;2023-05-29T01:39:52;94622.19;;;13.54;95.53
6435;BME280;3250;42.694;23.278;2023-05-29T01:42:18;94620.09;;;13.56;95.64
6435;BME280;3250;42.694;23.278;2023-05-29T01:44:44;94615.50;;;13.51;96.02
6435;BME280;3250;42.694;23.278;2023-05-29T01:47:11;94594.19;;;13.30;96.14
6435;BME280;3250;42.694;23.278;2023-05-29T01:49:37;94621.88;;;13.39;96.91
6435;BME280;3250;42.694;23.278;2023-05-29T01:52:03;94598.00;;;13.22;97.87
6435;BME280;3250;42.694;23.278;2023-05-29T01:54:29;94616.97;;;13.31;98.73
6435;BME280;3250;42.694;23.278;2023-05-29T01:56:54;94610.72;;;13.37;98.77
6435;BME280;3250;42.694;23.278;2023-05-29T01:59:21;94600.94;;;13.37;98.84
6435;BME280;3250;42.694;23.278;2023-05-29T02:01:47;94597.19;;;13.21;99.03
6435;BME280;3250;42.694;23.278;2023-05-29T02:04:12;94609.38;;;13.23;99.78
6435;BME280;3250;42.694;23.278;2023-05-29T02:06:38;94604.19;;;13.28;99.40
6435;BME280;3250;42.694;23.278;2023-05-29T02:09:03;94605.00;;;13.16;99.26
6435;BME280;3250;42.694;23.278;2023-05-29T02:11:29;94617.41;;;13.28;99.37
6435;BME280;3250;42.694;23.278;2023-05-29T02:13:54;94606.34;;;13.42;98.50
6435;BME280;3250;42.694;23.278;2023-05-29T02:16:20;94601.81;;;13.14;99.10
6435;BME280;3250;42.694;23.278;2023-05-29T02:18:46;94610.88;;;13.18;100.00
6435;BME280;3250;42.694;23.278;2023-05-29T02:21:11;94570.53;;;13.11;99.62
6435;BME280;3250;42.694;23.278;2023-05-29T02:23:37;94608.53;;;13.45;98.96
6435;BME280;3250;42.694;23.278;2023-05-29T02:26:02;94606.31;;;13.54;98.03
6435;BME280;3250;42.694;23.278;2023-05-29T02:28:28;94584.94;;;13.44;97.48
6435;BME280;3250;42.694;23.278;2023-05-29T02:30:53;94603.75;;;13.59;97.19
6435;BME280;3250;42.694;23.278;2023-05-29T02:33:19;94602.84;;;13.53;97.31
6435;BME280;3250;42.694;23.278;2023-05-29T02:35:45;94595.22;;;13.40;97.03
6435;BME280;3250;42.694;23.278;2023-05-29T02:38:10;94608.72;;;13.55;96.92
6435;BME280;3250;42.694;23.278;2023-05-29T02:40:35;94611.38;;;13.55;96.47
6435;BME280;3250;42.694;23.278;2023-05-29T02:43:01;94611.59;;;13.54;96.63
6435;BME280;3250;42.694;23.278;2023-05-29T02:45:26;94618.97;;;13.52;96.57
6435;BME280;3250;42.694;23.278;2023-05-29T02:47:51;94615.72;;;13.50;96.22
6435;BME280;3250;42.694;23.278;2023-05-29T02:50:17;94610.44;;;13.50;96.49
6435;BME280;3250;42.694;23.278;2023-05-29T02:52:42;94603.81;;;13.47;96.38
6435;BME280;3250;42.694;23.278;2023-05-29T02:55:08;94578.34;;;13.30;96.46
6435;BME280;3250;42.694;23.278;2023-05-29T02:57:33;94609.91;;;13.48;96.34
6435;BME280;3250;42.694;23.278;2023-05-29T02:59:59;94610.72;;;13.37;97.15
6435;BME280;3250;42.694;23.278;2023-05-29T03:02:26;94606.94;;;13.33;98.05
6435;BME280;3250;42.694;23.278;2023-05-29T03:04:52;94587.53;;;13.15;98.15
6435;BME280;3250;42.694;23.278;2023-05-29T03:07:19;94604.19;;;13.28;98.48
6435;BME280;3250;42.694;23.278;2023-05-29T03:09:44;94592.25;;;13.25;98.44
6435;BME280;3250;42.694;23.278;2023-05-29T03:12:09;94598.78;;;13.34;98.40
6435;BME280;3250;42.694;23.278;2023-05-29T03:14:36;94560.41;;;13.08;97.98
6435;BME280;3250;42.694;23.278;2023-05-29T03:17:05;94617.34;;;13.51;97.85
6435;BME280;3250;42.694;23.278;2023-05-29T03:19:32;94615.63;;;13.56;97.99
6435;BME280;3250;42.694;23.278;2023-05-29T03:21:57;94611.44;;;13.60;98.12
6435;BME280;3250;42.694;23.278;2023-05-29T03:24:22;94615.03;;;13.66;98.05
6435;BME280;3250;42.694;23.278;2023-05-29T03:26:49;94579.78;;;13.49;97.69
6435;BME280;3250;42.694;23.278;2023-05-29T03:29:15;94612.53;;;13.76;97.64
6435;BME280;3250;42.694;23.278;2023-05-29T03:31:41;94617.28;;;13.74;97.95
6435;BME280;3250;42.694;23.278;2023-05-29T03:34:07;94613.25;;;13.72;98.13
6435;BME280;3250;42.694;23.278;2023-05-29T03:36:32;94569.09;;;13.44;97.65
6435;BME280;3250;42.694;23.278;2023-05-29T03:38:58;94624.59;;;13.84;97.52
6435;BME280;3250;42.694;23.278;2023-05-29T03:41:23;94623.81;;;13.83;97.86
6435;BME280;3250;42.694;23.278;2023-05-29T03:43:50;94636.97;;;13.95;97.56
6435;BME280;3250;42.694;23.278;2023-05-29T03:46:16;94575.34;;;13.66;98.06
6435;BME280;3250;42.694;23.278;2023-05-29T03:48:41;94640.31;;;14.19;97.70
6435;BME280;3250;42.694;23.278;2023-05-29T03:51:07;94643.06;;;14.24;97.62
6435;BME280;3250;42.694;23.278;2023-05-29T03:53:32;94644.16;;;14.28;97.23
6435;BME280;3250;42.694;23.278;2023-05-29T03:55:57;94642.41;;;14.17;97.58
6435;BME280;3250;42.694;23.278;2023-05-29T03:58:23;94622.16;;;14.11;98.01
6435;BME280;3250;42.694;23.278;2023-05-29T04:00:48;94644.28;;;14.33;98.03
6435;BME280;3250;42.694;23.278;2023-05-29T04:03:14;94646.00;;;14.39;97.68
6435;BME280;3250;42.694;23.278;2023-05-29T04:05:40;94624.13;;;14.32;97.72
6435;BME280;3250;42.694;23.278;2023-05-29T04:08:05;94642.47;;;14.50;97.38
6435;BME280;3250;42.694;23.278;2023-05-29T04:10:31;94644.41;;;14.55;97.72
6435;BME280;3250;42.694;23.278;2023-05-29T04:12:59;94643.19;;;14.62;97.50
6435;BME280;3250;42.694;23.278;2023-05-29T04:15:25;94640.41;;;14.52;97.01
6435;BME280;3250;42.694;23.278;2023-05-29T04:17:50;94658.63;;;14.65;97.30
6435;BME280;3250;42.694;23.278;2023-05-29T04:20:16;94654.28;;;14.76;97.57
6435;BME280;3250;42.694;23.278;2023-05-29T04:22:41;94660.84;;;14.90;97.48
6435;BME280;3250;42.694;23.278;2023-05-29T04:25:07;94659.81;;;14.91;97.61
6435;BME280;3250;42.694;23.278;2023-05-29T04:27:33;94641.44;;;14.85;97.87
6435;BME280;3250;42.694;23.278;2023-05-29T04:30:06;94649.28;;;14.96;97.62
6435;BME280;3250;42.694;23.278;2023-05-29T04:32:32;94642.63;;;14.94;97.36
6435;BME280;3250;42.694;23.278;2023-05-29T04:35:01;94624.00;;;14.89;96.75
6435;BME280;3250;42.694;23.278;2023-05-29T04:37:28;94623.56;;;14.97;96.14
6435;BME280;3250;42.694;23.278;2023-05-29T04:39:57;94670.75;;;15.33;95.54
6435;BME280;3250;42.694;23.278;2023-05-29T04:42:23;94675.66;;;15.41;95.41
6435;BME280;3250;42.694;23.278;2023-05-29T04:44:50;94668.06;;;15.50;95.40
6435;BME280;3250;42.694;23.278;2023-05-29T04:47:18;94676.66;;;15.57;95.32
6435;BME280;3250;42.694;23.278;2023-05-29T04:49:44;94676.28;;;15.65;94.60
6435;BME280;3250;42.694;23.278;2023-05-29T04:52:15;94670.44;;;15.68;93.91
6435;BME280;3250;42.694;23.278;2023-05-29T04:54:40;94649.38;;;15.57;93.91
6435;BME280;3250;42.694;23.278;2023-05-29T04:57:06;94681.94;;;15.74;93.57
6435;BME280;3250;42.694;23.278;2023-05-29T04:59:31;94685.22;;;15.81;93.19
6435;BME280;3250;42.694;23.278;2023-05-29T05:01:56;94689.47;;;15.82;93.12
6435;BME280;3250;42.694;23.278;2023-05-29T05:04:22;94691.63;;;15.85;93.10
6435;BME280;3250;42.694;23.278;2023-05-29T05:06:47;94686.81;;;15.82;92.25
6435;BME280;3250;42.694;23.278;2023-05-29T05:09:13;94707.13;;;15.93;91.62
6435;BME280;3250;42.694;23.278;2023-05-29T05:11:38;94698.09;;;15.94;91.75
6435;BME280;3250;42.694;23.278;2023-05-29T05:14:03;94710.69;;;16.04;91.75
6435;BME280;3250;42.694;23.278;2023-05-29T05:16:29;94707.31;;;16.08;91.78
6435;BME280;3250;42.694;23.278;2023-05-29T05:18:54;94714.56;;;16.18;91.89
6435;BME280;3250;42.694;23.278;2023-05-29T05:21:19;94685.00;;;16.09;92.25
6435;BME280;3250;42.694;23.278;2023-05-29T05:23:45;94719.31;;;16.38;92.17
6435;BME280;3250;42.694;23.278;2023-05-29T05:26:11;94718.63;;;16.47;91.69
6435;BME280;3250;42.694;23.278;2023-05-29T05:28:36;94711.47;;;16.53;91.02
6435;BME280;3250;42.694;23.278;2023-05-29T05:31:02;94712.66;;;16.62;90.45
6435;BME280;3250;42.694;23.278;2023-05-29T05:33:27;94710.06;;;16.67;89.80
6435;BME280;3250;42.694;23.278;2023-05-29T05:35:52;94710.66;;;16.74;89.74
6435;BME280;3250;42.694;23.278;2023-05-29T05:38:18;94718.69;;;16.79;88.81
6435;BME280;3250;42.694;23.278;2023-05-29T05:40:43;94716.56;;;16.81;88.88
6435;BME280;3250;42.694;23.278;2023-05-29T05:43:10;94702.44;;;16.76;88.98
6435;BME280;3250;42.694;23.278;2023-05-29T05:45:35;94730.78;;;16.97;88.31
6435;BME280;3250;42.694;23.278;2023-05-29T05:48:01;94680.97;;;16.82;87.32
6435;BME280;3250;42.694;23.278;2023-05-29T05:50:27;94725.16;;;17.20;86.77
6435;BME280;3250;42.694;23.278;2023-05-29T05:52:52;94720.75;;;17.36;86.32
6435;BME280;3250;42.694;23.278;2023-05-29T05:55:17;94725.59;;;17.49;85.70
6435;BME280;3250;42.694;23.278;2023-05-29T05:57:43;94725.41;;;17.61;84.84
6435;BME280;3250;42.694;23.278;2023-05-29T06:00:09;94728.75;;;17.78;84.62
6435;BME280;3250;42.694;23.278;2023-05-29T06:02:38;94706.66;;;17.83;84.69
6435;BME280;3250;42.694;23.278;2023-05-29T06:05:06;94720.09;;;18.13;84.80
6435;BME280;3250;42.694;23.278;2023-05-29T06:07:32;94686.59;;;18.32;84.69
6435;BME280;3250;42.694;23.278;2023-05-29T06:09:58;94690.97;;;19.14;82.23
6435;BME280;3250;42.694;23.278;2023-05-29T06:12:23;94724.19;;;20.03;78.13
6435;BME280;3250;42.694;23.278;2023-05-29T06:14:49;94731.75;;;20.50;75.34
6435;BME280;3250;42.694;23.278;2023-05-29T06:17:15;94738.09;;;20.69;73.55
6435;BME280;3250;42.694;23.278;2023-05-29T06:19:41;94736.47;;;20.68;72.67
6435;BME280;3250;42.694;23.278;2023-05-29T06:22:06;94742.63;;;20.69;74.23
6435;BME280;3250;42.694;23.278;2023-05-29T06:24:32;94737.00;;;20.76;72.38
6435;BME280;3250;42.694;23.278;2023-05-29T06:26:57;94738.66;;;20.66;71.21
6435;BME280;3250;42.694;23.278;2023-05-29T06:29:23;94733.84;;;20.58;72.94
6435;BME280;3250;42.694;23.278;2023-05-29T06:31:48;94707.41;;;20.57;71.02
6435;BME280;3250;42.694;23.278;2023-05-29T06:34:13;94755.94;;;20.84;69.59
6435;BME280;3250;42.694;23.278;2023-05-29T06:36:39;94745.34;;;20.59;70.94
6435;BME280;3250;42.694;23.278;2023-05-29T06:39:05;94743.38;;;20.80;73.78
6435;BME280;3250;42.694;23.278;2023-05-29T06:41:30;94739.03;;;21.28;73.39
6435;BME280;3250;42.694;23.278;2023-05-29T06:43:56;94744.16;;;21.58;69.54
6435;BME280;3250;42.694;23.278;2023-05-29T06:46:21;94743.72;;;21.75;68.12
6435;BME280;3250;42.694;23.278;2023-05-29T06:48:47;94743.22;;;22.02;69.15
6435;BME280;3250;42.694;23.278;2023-05-29T06:51:45;94753.25;;;22.39;67.71
6435;BME280;3250;42.694;23.278;2023-05-29T06:54:10;94739.75;;;23.05;69.23
6435;BME280;3250;42.694;23.278;2023-05-29T06:56:36;94746.34;;;23.31;64.61
6435;BME280;3250;42.694;23.278;2023-05-29T06:59:01;94740.50;;;23.43;62.76
6435;BME280;3250;42.694;23.278;2023-05-29T07:01:27;94734.50;;;23.51;63.24
6435;BME280;3250;42.694;23.278;2023-05-29T07:03:53;94745.78;;;23.67;61.34
6435;BME280;3250;42.694;23.278;2023-05-29T07:06:19;94739.47;;;23.58;61.94
6435;BME280;3250;42.694;23.278;2023-05-29T07:08:45;94742.41;;;23.89;62.77
6435;BME280;3250;42.694;23.278;2023-05-29T07:11:10;94726.09;;;23.99;62.30
6435;BME280;3250;42.694;23.278;2023-05-29T07:13:35;94743.09;;;24.27;63.42
6435;BME280;3250;42.694;23.278;2023-05-29T07:16:01;94747.41;;;24.77;61.64
6435;BME280;3250;42.694;23.278;2023-05-29T07:18:26;94751.19;;;25.26;58.04
6435;BME280;3250;42.694;23.278;2023-05-29T07:20:52;94721.91;;;25.11;57.20
6435;BME280;3250;42.694;23.278;2023-05-29T07:23:17;94734.47;;;25.60;58.17
6435;BME280;3250;42.694;23.278;2023-05-29T07:25:42;94741.72;;;25.73;54.00
6435;BME280;3250;42.694;23.278;2023-05-29T07:28:08;94735.38;;;25.78;55.00
6435;BME280;3250;42.694;23.278;2023-05-29T07:30:33;94731.81;;;25.91;54.36
6435;BME280;3250;42.694;23.278;2023-05-29T07:32:59;94695.16;;;25.59;54.73
6435;BME280;3250;42.694;23.278;2023-05-29T07:35:24;94732.28;;;25.40;55.42
6435;BME280;3250;42.694;23.278;2023-05-29T07:37:50;94727.78;;;25.35;58.07
6435;BME280;3250;42.694;23.278;2023-05-29T07:40:17;94720.53;;;25.00;54.70
6435;BME280;3250;42.694;23.278;2023-05-29T07:42:43;94732.06;;;24.78;56.97
6435;BME280;3250;42.694;23.278;2023-05-29T07:45:08;94727.50;;;24.51;58.36
6435;BME280;3250;42.694;23.278;2023-05-29T07:47:34;94727.91;;;24.17;58.40
6435;BME280;3250;42.694;23.278;2023-05-29T07:49:59;94730.50;;;23.49;59.59
6435;BME280;3250;42.694;23.278;2023-05-29T07:52:24;94700.19;;;22.92;61.56
6435;BME280;3250;42.694;23.278;2023-05-29T07:54:50;94720.06;;;22.72;64.05
6435;BME280;3250;42.694;23.278;2023-05-29T07:57:16;94684.72;;;22.28;62.34
6435;BME280;3250;42.694;23.278;2023-05-29T07:59:41;94717.22;;;22.45;65.48
6435;BME280;3250;42.694;23.278;2023-05-29T08:02:07;94717.81;;;22.61;67.72
6435;BME280;3250;42.694;23.278;2023-05-29T08:04:33;94718.13;;;22.78;64.88
6435;BME280;3250;42.694;23.278;2023-05-29T08:07:02;94714.19;;;22.70;61.99
6435;BME280;3250;42.694;23.278;2023-05-29T08:09:29;94690.75;;;22.14;62.26
6435;BME280;3250;42.694;23.278;2023-05-29T08:11:54;94719.78;;;21.83;63.95
6435;BME280;3250;42.694;23.278;2023-05-29T08:14:20;94680.44;;;21.26;65.63
6435;BME280;3250;42.694;23.278;2023-05-29T08:16:45;94698.97;;;21.13;67.59
6435;BME280;3250;42.694;23.278;2023-05-29T08:19:10;94682.03;;;20.88;68.04
6435;BME280;3250;42.694;23.278;2023-05-29T08:21:36;94699.25;;;20.77;68.75
6435;BME280;3250;42.694;23.278;2023-05-29T08:24:03;94724.66;;;20.80;71.05
6435;BME280;3250;42.694;23.278;2023-05-29T08:26:31;94689.81;;;20.46;71.59
6435;BME280;3250;42.694;23.278;2023-05-29T08:28:57;94682.38;;;20.38;72.16
6435;BME280;3250;42.694;23.278;2023-05-29T08:31:22;94711.09;;;20.66;72.27
6435;BME280;3250;42.694;23.278;2023-05-29T08:33:52;94688.91;;;20.60;70.06
6435;BME280;3250;42.694;23.278;2023-05-29T08:36:17;94726.25;;;20.81;67.24
6435;BME280;3250;42.694;23.278;2023-05-29T08:38:46;94727.50;;;20.93;69.11
6435;BME280;3250;42.694;23.278;2023-05-29T08:41:25;94652.53;;;20.59;66.80
6435;BME280;3250;42.694;23.278;2023-05-29T08:43:53;94720.19;;;21.09;66.39
6435;BME280;3250;42.694;23.278;2023-05-29T08:46:18;94664.50;;;20.72;67.57
6435;BME280;3250;42.694;23.278;2023-05-29T08:48:49;94664.84;;;20.99;69.38
6435;BME280;3250;42.694;23.278;2023-05-29T08:51:20;94701.66;;;21.46;67.95
6435;BME280;3250;42.694;23.278;2023-05-29T08:53:47;94664.44;;;21.45;65.41
6435;BME280;3250;42.694;23.278;2023-05-29T08:56:13;94677.81;;;21.74;67.82
6435;BME280;3250;42.694;23.278;2023-05-29T08:58:38;94712.53;;;22.13;60.60
6435;BME280;3250;42.694;23.278;2023-05-29T09:01:04;94650.72;;;21.52;62.05
6435;BME280;3250;42.694;23.278;2023-05-29T09:03:29;94663.28;;;21.27;61.41
6435;BME280;3250;42.694;23.278;2023-05-29T09:06:01;94707.53;;;21.49;61.84
6435;BME280;3250;42.694;23.278;2023-05-29T09:08:28;94672.59;;;21.35;61.40
6435;BME280;3250;42.694;23.278;2023-05-29T09:10:54;94629.63;;;21.16;63.33
6435;BME280;3250;42.694;23.278;2023-05-29T09:13:20;94661.34;;;21.33;61.00
6435;BME280;3250;42.694;23.278;2023-05-29T09:15:46;94695.13;;;21.58;62.32
6435;BME280;3250;42.694;23.278;2023-05-29T09:18:12;94651.16;;;21.35;60.50
6435;BME280;3250;42.694;23.278;2023-05-29T09:20:37;94689.59;;;21.49;59.38
6435;BME280;3250;42.694;23.278;2023-05-29T09:23:07;94689.41;;;21.40;61.87
6435;BME280;3250;42.694;23.278;2023-05-29T09:25:40;94682.34;;;21.50;61.59
6435;BME280;3250;42.694;23.278;2023-05-29T09:28:08;94662.97;;;21.58;61.75
6435;BME280;3250;42.694;23.278;2023-05-29T09:33:02;94645.38;;;21.52;59.74
6435;BME280;3250;42.694;23.278;2023-05-29T09:35:46;94668.00;;;21.64;60.24
6435;BME280;3250;42.694;23.278;2023-05-29T09:38:14;94666.50;;;21.53;59.82
6435;BME280;3250;42.694;23.278;2023-05-29T09:40:41;94630.22;;;21.37;65.49
6435;BME280;3250;42.694;23.278;2023-05-29T09:43:16;94661.38;;;21.57;64.14
6435;BME280;3250;42.694;23.278;2023-05-29T09:45:44;94626.53;;;21.33;64.64
6435;BME280;3250;42.694;23.278;2023-05-29T09:48:16;94657.34;;;21.59;64.37
6435;BME280;3250;42.694;23.278;2023-05-29T09:50:43;94633.06;;;21.51;62.24
6435;BME280;3250;42.694;23.278;2023-05-29T09:53:22;94652.88;;;21.73;62.99
6435;BME280;3250;42.694;23.278;2023-05-29T09:55:50;94652.03;;;21.78;62.58
6435;BME280;3250;42.694;23.278;2023-05-29T09:58:19;94649.13;;;21.74;60.18
6435;BME280;3250;42.694;23.278;2023-05-29T10:00:45;94609.91;;;21.60;59.11
6435;BME280;3250;42.694;23.278;2023-05-29T10:03:11;94626.09;;;21.73;60.70
6435;BME280;3250;42.694;23.278;2023-05-29T10:05:41;94653.06;;;21.82;59.94
6435;BME280;3250;42.694;23.278;2023-05-29T10:08:14;94652.03;;;21.78;58.56
6435;BME280;3250;42.694;23.278;2023-05-29T10:10:43;94626.50;;;21.62;63.03
6435;BME280;3250;42.694;23.278;2023-05-29T10:13:13;94601.34;;;21.58;62.25
6435;BME280;3250;42.694;23.278;2023-05-29T10:15:41;94647.56;;;21.92;60.16
6435;BME280;3250;42.694;23.278;2023-05-29T10:18:30;94611.75;;;21.83;59.32
6435;BME280;3250;42.694;23.278;2023-05-29T10:20:57;94631.50;;;21.92;58.87
6435;BME280;3250;42.694;23.278;2023-05-29T10:23:25;94640.06;;;21.94;58.78
6435;BME280;3250;42.694;23.278;2023-05-29T10:25:59;94634.94;;;21.98;59.02
6435;BME280;3250;42.694;23.278;2023-05-29T10:28:30;94618.88;;;21.93;60.77
6435;BME280;3250;42.694;23.278;2023-05-29T10:31:13;94592.78;;;21.79;58.93
6435;BME280;3250;42.694;23.278;2023-05-29T10:34:00;94624.16;;;22.03;58.36
6435;BME280;3250;42.694;23.278;2023-05-29T10:36:35;94615.38;;;21.97;57.68
6435;BME280;3250;42.694;23.278;2023-05-29T10:39:01;94622.31;;;21.98;55.82
6435;BME280;3250;42.694;23.278;2023-05-29T10:44:00;94637.38;;;21.94;55.15
6435;BME280;3250;42.694;23.278;2023-05-29T10:51:41;94610.59;;;21.70;56.94
6435;BME280;3250;42.694;23.278;2023-05-29T10:54:07;94621.47;;;21.79;55.65
6435;BME280;3250;42.694;23.278;2023-05-29T10:56:32;94612.63;;;21.78;56.48
6435;BME280;3250;42.694;23.278;2023-05-29T10:58:59;94572.78;;;21.48;55.99
6435;BME280;3250;42.694;23.278;2023-05-29T11:01:30;94614.03;;;21.71;56.29
6435;BME280;3250;42.694;23.278;2023-05-29T11:04:25;94577.47;;;21.37;55.21
6435;BME280;3250;42.694;23.278;2023-05-29T11:06:53;94594.56;;;21.41;56.36
6435;BME280;3250;42.694;23.278;2023-05-29T11:09:33;94595.53;;;21.51;57.13
6435;BME280;3250;42.694;23.278;2023-05-29T11:14:54;94601.16;;;21.73;57.80
6435;BME280;3250;42.694;23.278;2023-05-29T11:20:09;94573.53;;;21.77;56.87
6435;BME280;3250;42.694;23.278;2023-05-29T11:23:01;94589.34;;;21.98;59.18
6435;BME280;3250;42.694;23.278;2023-05-29T11:25:28;94577.97;;;21.87;55.75
6435;BME280;3250;42.694;23.278;2023-05-29T11:27:54;94593.41;;;21.95;55.29
6435;BME280;3250;42.694;23.278;2023-05-29T11:30:20;94555.09;;;21.52;55.31
6435;BME280;3250;42.694;23.278;2023-05-29T11:32:46;94592.59;;;21.71;55.91
6435;BME280;3250;42.694;23.278;2023-05-29T11:35:12;94536.78;;;21.35;57.75
6435;BME280;3250;42.694;23.278;2023-05-29T11:37:39;94590.56;;;21.63;60.81
6435;BME280;3250;42.694;23.278;2023-05-29T11:40:06;94560.56;;;21.42;60.36
6435;BME280;3250;42.694;23.278;2023-05-29T11:42:33;94591.50;;;21.53;61.82
6435;BME280;3250;42.694;23.278;2023-05-29T11:45:31;94577.81;;;21.55;59.39
6435;BME280;3250;42.694;23.278;2023-05-29T11:47:58;94580.16;;;21.61;60.10
6435;BME280;3250;42.694;23.278;2023-05-29T11:50:30;94579.03;;;21.62;61.50
6435;BME280;3250;42.694;23.278;2023-05-29T11:52:56;94575.81;;;21.65;62.22
6435;BME280;3250;42.694;23.278;2023-05-29T11:55:23;94557.16;;;21.55;62.53
6435;BME280;3250;42.694;23.278;2023-05-29T11:57:50;94541.44;;;21.49;63.61
6435;BME280;3250;42.694;23.278;2023-05-29T12:00:17;94565.72;;;21.57;61.90
6435;BME280;3250;42.694;23.278;2023-05-29T12:02:44;94573.81;;;21.76;58.52
6435;BME280;3250;42.694;23.278;2023-05-29T12:05:13;94576.94;;;21.83;58.82
6435;BME280;3250;42.694;23.278;2023-05-29T12:07:47;94569.75;;;21.78;58.09
6435;BME280;3250;42.694;23.278;2023-05-29T12:10:15;94523.72;;;21.53;59.01
6435;BME280;3250;42.694;23.278;2023-05-29T12:12:41;94537.63;;;21.55;59.82
6435;BME280;3250;42.694;23.278;2023-05-29T12:15:07;94561.59;;;21.65;60.51
6435;BME280;3250;42.694;23.278;2023-05-29T12:17:34;94542.88;;;21.41;61.21
6435;BME280;3250;42.694;23.278;2023-05-29T12:20:00;94583.84;;;21.65;62.43
6435;BME280;3250;42.694;23.278;2023-05-29T12:22:37;94606.47;;;21.30;67.42
6435;BME280;3250;42.694;23.278;2023-05-29T12:25:07;94622.41;;;20.83;73.57
6435;BME280;3250;42.694;23.278;2023-05-29T12:27:34;94624.25;;;20.04;79.39
6435;BME280;3250;42.694;23.278;2023-05-29T12:30:07;94620.72;;;19.39;82.95
6435;BME280;3250;42.694;23.278;2023-05-29T12:32:43;94587.47;;;18.71;86.04
6435;BME280;3250;42.694;23.278;2023-05-29T12:35:25;94602.41;;;18.62;88.94
6435;BME280;3250;42.694;23.278;2023-05-29T12:37:58;94625.09;;;18.74;90.30
6435;BME280;3250;42.694;23.278;2023-05-29T12:40:29;94599.75;;;18.57;91.10
6435;BME280;3250;42.694;23.278;2023-05-29T12:45:28;94605.03;;;18.46;89.21
6435;BME280;3250;42.694;23.278;2023-05-29T12:47:59;94622.66;;;18.47;89.05
6435;BME280;3250;42.694;23.278;2023-05-29T12:50:27;94617.28;;;18.37;89.05
6435;BME280;3250;42.694;23.278;2023-05-29T12:53:05;94625.28;;;18.32;90.52
6435;BME280;3250;42.694;23.278;2023-05-29T12:55:33;94623.16;;;18.29;90.87
6435;BME280;3250;42.694;23.278;2023-05-29T12:57:59;94610.34;;;18.26;91.45
6435;BME280;3250;42.694;23.278;2023-05-29T13:00:25;94619.69;;;18.34;87.94
6435;BME280;3250;42.694;23.278;2023-05-29T13:02:50;94622.09;;;18.30;88.23
6435;BME280;3250;42.694;23.278;2023-05-29T13:05:16;94618.38;;;18.31;89.29
6435;BME280;3250;42.694;23.278;2023-05-29T13:07:44;94617.59;;;18.41;91.23
6435;BME280;3250;42.694;23.278;2023-05-29T13:10:10;94595.16;;;18.37;90.77
6435;BME280;3250;42.694;23.278;2023-05-29T13:12:35;94617.09;;;18.59;90.39
6435;BME280;3250;42.694;23.278;2023-05-29T13:15:01;94616.25;;;18.69;90.37
6435;BME280;3250;42.694;23.278;2023-05-29T13:17:26;94590.63;;;18.53;84.07
6435;BME280;3250;42.694;23.278;2023-05-29T13:19:52;94621.63;;;18.74;87.30
6435;BME280;3250;42.694;23.278;2023-05-29T13:22:17;94550.66;;;18.47;90.58
6435;BME280;3250;42.694;23.278;2023-05-29T13:24:43;94565.34;;;18.70;89.76
6435;BME280;3250;42.694;23.278;2023-05-29T13:27:08;94570.66;;;18.91;87.63
6435;BME280;3250;42.694;23.278;2023-05-29T13:29:37;94607.69;;;19.28;87.24
6435;BME280;3250;42.694;23.278;2023-05-29T13:32:02;94572.94;;;19.33;88.05
6435;BME280;3250;42.694;23.278;2023-05-29T13:34:28;94609.19;;;19.69;86.12